Eureka, CA

2:37 PM PDT on October 23, 2014 (GMT -0700)
Henderson Center | Change Station
CLOSE
Current Station
Personal Weather Station
Location: Eureka, CA
Elevation: 125 ft
Nearby Weather Stations

Elev 125 ft 40.78 °N, 124.17 °W | Updated 1 second ago

Overcast
Overcast
62.6 °F
Feels Like 62.6 °F
N
0.0
Wind Variable Wind from SW
Gusts 0.0 mph

Today
High -- | Low -- °F
--% Chance of Precip.
Yesterday
High -- | Low -- °F
Precip. -- in
7:36 AM 6:24 PM
Waning Crescent, 0% visible
Pressure 30.02 in
Visibility 9.0 miles
Clouds Few 700 ft
Mostly Cloudy 1700 ft
Overcast 8000 ft
Dew Point 62 °F
Humidity 98%
Rainfall 0.63 in
Snow Depth Not available.
UV 1 out of 12
Pollen .50 out of 12
Air Quality Not available.
Flu Activity Sporadic
SPECI KACV 232128Z AUTO 21003KT 9SM FEW007 BKN017 OVC080 16/15 A3002 RMK AO2 T01560150

More Conditions Fewer Conditions

Pressure 30.02 in
Visibility 9.0 miles
Clouds Few 700 ft
Mostly Cloudy 1700 ft
Overcast 8000 ft
Dew Point 62 °F
Humidity 98%
Rainfall 0.63 in
Snow Depth Not available.
UV 1 out of 12
Pollen .50 out of 12
Air Quality Not available.
Flu Activity Sporadic
SPECI KACV 232128Z AUTO 21003KT 9SM FEW007 BKN017 OVC080 16/15 A3002 RMK AO2 T01560150

More Conditions Fewer Conditions

10-Day Weather Forecast

Almanac

Astronomy

Oct. 23, 2014 Rise Set
Actual Time 7:36 AM PDT 6:24 PM PDT
Civil Twilight 7:08 AM PDT 6:52 PM PDT
Nautical Twilight 6:36 AM PDT 7:24 PM PDT
Astronomical Twilight 6:05 AM PDT 7:55 PM PDT
Moon 7:21 AM PDT 6:29 PM PDT
Length of Visible Light 11h 43m
Length of Day
10h 47m
Tomorrow will be 2m 31s shorter.
Waning Crescent, 0% of the Moon is Illuminated
Today
Waning Crescent
Oct 23
New
Oct 30
First Quarter
Nov 6
Full
Nov 14
Last Quarter

Today's Extremes

State Highs State Lows

Community

WunderPhotos

Upload Photos

1,764,379 photos uploaded!

WunderBlogs® & News

Nearby

Snow Depth

Station Depth Elevation
Adin Mountain 0 in 6200 ft
Tahoe City Cross 0 in 6750 ft
Rubicon #2 0 in 7500 ft
Echo Peak 0 in 7800 ft
Hagan's Meadow 0 in 8000 ft

Earthquake Activity

City Distance Mag. Time & Date
Crescent City, California 74 miles 2.6 1:22 AM PDT
2014-10-21
Minimum magnitude displayed is 2.5.

Coastal Water Temperatures

Place Temperature
North Spit, CA 57.9 °F
Crescent City, CA 60.1 °F

Nearby Weather Stations